Time;durP1;ratioP1;P1;durP2;ratioP2;P2;SDS_P1;SDS_P2;PMS_P1;PMS_P2;Temp;Humidity;BMP_temperature;BMP_pressure;BME280_temperature;BME280_humidity;BME280_pressure;Samples;Min_cycle;Max_cycle;Signal;HPM_P1;HPM_P2
2021/07/23 00:00:00;;;;;;;10.30;7.97;;;;;;;-145.12;100.00;63763.75;344937;28;161772;-78
2021/07/23 00:01:11;;;;;;;9.50;8.02;;;;;;;-145.12;100.00;63763.75;345840;28;137377;-76
2021/07/23 00:02:22;;;;;;;10.80;7.72;;;;;;;-145.12;100.00;63763.75;345803;28;138345;-77
2021/07/23 00:03:35;;;;;;;9.25;7.90;;;;;;;-145.12;100.00;63763.75;345968;28;137056;-73
2021/07/23 00:04:46;;;;;;;10.48;7.88;;;;;;;-145.12;100.00;63763.75;343099;28;137277;-73
2021/07/23 00:05:59;;;;;;;11.48;7.86;;;;;;;-145.12;100.00;63763.75;342141;28;161300;-74
2021/07/23 00:07:10;;;;;;;11.60;7.88;;;;;;;-145.12;100.00;63763.75;344563;28;137188;-71
2021/07/23 00:08:21;;;;;;;10.52;7.80;;;;;;;-145.12;100.00;63763.75;342852;28;159429;-71
2021/07/23 00:09:35;;;;;;;10.07;8.23;;;;;;;-145.12;100.00;63763.75;345779;28;137093;-75
2021/07/23 00:10:47;;;;;;;10.02;7.95;;;;;;;-145.12;100.00;63763.75;342509;28;160335;-78
2021/07/23 00:11:58;;;;;;;10.40;7.93;;;;;;;-145.12;100.00;63763.75;344680;28;137663;-74
2021/07/23 00:13:09;;;;;;;10.50;7.70;;;;;;;-145.12;100.00;63763.75;343671;28;160946;-71
2021/07/23 00:14:25;;;;;;;10.60;7.97;;;;;;;-145.12;100.00;63763.75;344535;28;136472;-75
2021/07/23 00:15:37;;;;;;;11.18;8.10;;;;;;;-145.12;100.00;63763.75;344421;28;137257;-72
2021/07/23 00:16:49;;;;;;;10.32;7.75;;;;;;;-145.12;100.00;63763.75;344378;28;138523;-74
2021/07/23 00:18:01;;;;;;;9.93;7.80;;;;;;;-145.12;100.00;63763.75;343161;28;137248;-75
2021/07/23 00:19:17;;;;;;;10.02;7.93;;;;;;;-145.12;100.00;63763.75;343141;28;137685;-79
2021/07/23 00:20:35;;;;;;;10.82;7.72;;;;;;;-145.12;100.00;63763.75;343103;28;137198;-75
2021/07/23 00:21:54;;;;;;;10.73;7.55;;;;;;;-145.12;100.00;63763.75;343323;28;138429;-73
2021/07/23 00:23:05;;;;;;;9.77;7.80;;;;;;;-145.12;100.00;63763.75;343086;28;137257;-72
2021/07/23 00:24:16;;;;;;;10.35;7.75;;;;;;;-145.12;100.00;63763.75;343227;28;138283;-77
2021/07/23 00:25:28;;;;;;;10.00;8.13;;;;;;;-145.12;100.00;63763.75;343091;28;138225;-74
2021/07/23 00:26:39;;;;;;;11.45;8.32;;;;;;;-145.12;100.00;63763.75;343205;28;138617;-66
2021/07/23 00:27:51;;;;;;;9.20;7.97;;;;;;;-145.12;100.00;63763.75;342429;28;159917;-73
2021/07/23 00:29:02;;;;;;;10.68;7.95;;;;;;;-145.12;100.00;63763.75;344326;28;138263;-78
2021/07/23 00:30:13;;;;;;;9.90;7.97;;;;;;;-145.12;100.00;63763.75;344353;28;137109;-77
2021/07/23 00:31:25;;;;;;;9.65;8.13;;;;;;;-145.12;100.00;63763.75;344659;28;137095;-75
2021/07/23 00:32:36;;;;;;;10.57;8.15;;;;;;;-145.12;100.00;63763.75;344447;28;137289;-74
2021/07/23 00:33:47;;;;;;;11.23;7.88;;;;;;;-145.12;100.00;63763.75;344458;28;137329;-76
2021/07/23 00:34:58;;;;;;;8.73;7.75;;;;;;;-145.12;100.00;63763.75;344589;28;137265;-76
2021/07/23 00:36:10;;;;;;;10.73;7.80;;;;;;;-145.12;100.00;63763.75;344591;28;136548;-76
2021/07/23 00:37:21;;;;;;;10.23;7.78;;;;;;;-145.12;100.00;63763.75;344667;28;137671;-75
2021/07/23 00:38:32;;;;;;;10.85;7.93;;;;;;;-145.12;100.00;63763.75;344153;28;137088;-74
2021/07/23 00:39:43;;;;;;;10.73;8.10;;;;;;;-145.12;100.00;63763.75;343626;28;160429;-71
2021/07/23 00:40:54;;;;;;;9.15;8.00;;;;;;;-145.12;100.00;63763.75;344619;28;136919;-68
2021/07/23 00:42:05;;;;;;;11.45;7.80;;;;;;;-145.12;100.00;63763.75;344537;28;137784;-68
2021/07/23 00:43:16;;;;;;;9.75;8.02;;;;;;;-145.12;100.00;63763.75;344529;28;137245;-70
2021/07/23 00:44:27;;;;;;;11.13;8.32;;;;;;;-145.12;100.00;63763.75;344562;28;136407;-66
2021/07/23 00:45:39;;;;;;;11.48;7.95;;;;;;;-145.12;100.00;63763.75;343399;28;137078;-75
2021/07/23 00:46:52;;;;;;;11.50;8.43;;;;;;;-145.12;100.00;63763.75;343051;28;136537;-70
2021/07/23 00:48:03;;;;;;;10.50;7.97;;;;;;;-145.12;100.00;63763.75;344408;28;137600;-70
2021/07/23 00:49:15;;;;;;;10.30;7.63;;;;;;;-145.12;100.00;63763.75;344646;28;137388;-68
2021/07/23 00:50:27;;;;;;;10.50;7.53;;;;;;;-145.12;100.00;63763.75;343747;28;160738;-72
2021/07/23 00:51:39;;;;;;;9.50;8.15;;;;;;;-145.12;100.00;63763.75;343091;28;137401;-74
2021/07/23 00:52:50;;;;;;;12.85;7.70;;;;;;;-145.12;100.00;63763.75;343269;28;136952;-74
2021/07/23 00:54:03;;;;;;;10.50;8.27;;;;;;;-145.12;100.00;63763.75;344592;28;137014;-72
2021/07/23 00:55:14;;;;;;;10.27;8.48;;;;;;;-145.12;100.00;63763.75;343699;28;160191;-76
2021/07/23 00:56:26;;;;;;;10.30;8.32;;;;;;;-145.12;100.00;63763.75;344354;28;138822;-73
2021/07/23 00:57:39;;;;;;;10.48;8.27;;;;;;;-145.12;100.00;63763.75;344731;28;136448;-71
2021/07/23 00:58:52;;;;;;;10.95;8.32;;;;;;;-145.12;100.00;63763.75;344634;28;136385;-75
2021/07/23 01:00:04;;;;;;;11.80;8.43;;;;;;;-145.12;100.00;63763.75;343155;28;138706;-70
2021/07/23 01:01:15;;;;;;;11.93;8.27;;;;;;;-145.12;100.00;63763.75;341585;28;138134;-72
2021/07/23 01:02:27;;;;;;;9.45;8.07;;;;;;;-145.12;100.00;63763.75;342324;28;159456;-73
2021/07/23 01:03:38;;;;;;;8.73;7.45;;;;;;;-145.12;100.00;63763.75;343013;28;138519;-75
2021/07/23 01:04:49;;;;;;;10.25;8.20;;;;;;;-145.12;100.00;63763.75;343092;28;136392;-70
2021/07/23 01:06:02;;;;;;;10.85;8.10;;;;;;;-145.12;100.00;63763.75;344499;28;136472;-71
2021/07/23 01:07:13;;;;;;;11.88;8.18;;;;;;;-145.12;100.00;63763.75;344393;28;136483;-70
2021/07/23 01:08:25;;;;;;;10.13;8.32;;;;;;;-145.12;100.00;63763.75;342899;28;137170;-69
2021/07/23 01:09:36;;;;;;;10.68;8.75;;;;;;;-145.12;100.00;63763.75;344648;28;137287;-70
2021/07/23 01:10:50;;;;;;;11.82;8.63;;;;;;;-145.12;100.00;63763.75;343192;28;137028;-68
2021/07/23 01:12:02;;;;;;;11.45;8.18;;;;;;;-145.12;100.00;63763.75;341571;28;137253;-72
2021/07/23 01:13:13;;;;;;;9.90;7.78;;;;;;;-145.12;100.00;63763.75;341812;28;138099;-66
2021/07/23 01:14:26;;;;;;;11.27;8.30;;;;;;;-145.12;100.00;63763.75;343084;28;137223;-70
2021/07/23 01:15:38;;;;;;;9.90;7.88;;;;;;;-145.12;100.00;63763.75;343124;28;138182;-66
2021/07/23 01:16:49;;;;;;;14.35;8.45;;;;;;;-145.12;100.00;63763.75;342572;28;161178;-68
2021/07/23 01:18:00;;;;;;;12.25;8.32;;;;;;;-145.12;100.00;63763.75;344371;28;138192;-67
2021/07/23 01:19:11;;;;;;;11.40;8.15;;;;;;;-145.12;100.00;63763.75;343582;28;160114;-73
2021/07/23 01:20:25;;;;;;;10.93;8.10;;;;;;;-145.12;100.00;63763.75;344413;28;137085;-66
2021/07/23 01:21:39;;;;;;;11.95;8.38;;;;;;;-145.12;100.00;63763.75;344372;28;136471;-72
2021/07/23 01:22:54;;;;;;;11.18;8.45;;;;;;;-145.12;100.00;63763.75;344368;28;137054;-76
2021/07/23 01:24:06;;;;;;;11.45;8.07;;;;;;;-145.12;100.00;63763.75;343990;28;138190;-77
2021/07/23 01:25:18;;;;;;;11.60;8.20;;;;;;;-145.12;100.00;63763.75;342965;28;137171;-68
2021/07/23 01:26:29;;;;;;;10.07;8.55;;;;;;;-145.12;100.00;63763.75;342106;28;160105;-66
2021/07/23 01:27:47;;;;;;;10.65;8.10;;;;;;;-145.12;100.00;63763.75;343196;28;137095;-74
2021/07/23 01:28:58;;;;;;;11.32;8.38;;;;;;;-145.12;100.00;63763.75;342198;28;161193;-73
2021/07/23 01:30:09;;;;;;;11.88;8.35;;;;;;;-145.12;100.00;63763.75;343041;28;137243;-73
2021/07/23 01:31:22;;;;;;;10.15;8.15;;;;;;;-145.12;100.00;63763.75;344389;28;136532;-74
2021/07/23 01:32:33;;;;;;;12.07;8.75;;;;;;;-145.12;100.00;63763.75;344300;28;137016;-70
2021/07/23 01:33:45;;;;;;;11.23;8.25;;;;;;;-145.12;100.00;63763.75;344556;28;137313;-67
2021/07/23 01:34:56;;;;;;;10.20;7.96;;;;;;;-145.12;100.00;63763.75;343699;28;160195;-70
2021/07/23 01:36:08;;;;;;;11.60;8.23;;;;;;;-145.12;100.00;63763.75;344218;28;137172;-76
2021/07/23 01:37:21;;;;;;;12.75;8.30;;;;;;;-145.12;100.00;63763.75;344499;28;138093;-77
2021/07/23 01:38:33;;;;;;;11.43;8.35;;;;;;;-145.12;100.00;63763.75;344380;28;136568;-73
2021/07/23 01:39:44;;;;;;;10.82;8.30;;;;;;;-145.12;100.00;63763.75;342461;28;160055;-66
2021/07/23 01:40:56;;;;;;;11.82;8.13;;;;;;;-145.12;100.00;63763.75;343058;28;137046;-76
2021/07/23 01:42:08;;;;;;;10.98;8.30;;;;;;;-145.12;100.00;63763.75;343074;28;137814;-75
2021/07/23 01:43:19;;;;;;;10.07;8.40;;;;;;;-145.12;100.00;63763.75;343232;28;137830;-75
2021/07/23 01:44:30;;;;;;;11.48;8.70;;;;;;;-145.12;100.00;63763.75;343029;28;138178;-78
2021/07/23 01:45:42;;;;;;;11.40;9.12;;;;;;;-145.12;100.00;63763.75;343426;28;161154;-76
2021/07/23 01:46:53;;;;;;;12.55;8.82;;;;;;;-145.12;100.00;63763.75;344425;28;137256;-78
2021/07/23 01:48:04;;;;;;;10.95;8.18;;;;;;;-145.12;100.00;63763.75;344482;28;137091;-78
2021/07/23 01:49:15;;;;;;;12.32;8.40;;;;;;;-145.12;100.00;63763.75;343370;28;160316;-76
2021/07/23 01:50:26;;;;;;;12.65;9.07;;;;;;;-145.12;100.00;63763.75;342775;28;138534;-77
2021/07/23 01:51:37;;;;;;;12.50;8.35;;;;;;;-145.12;100.00;63763.75;342390;28;160931;-77
2021/07/23 01:52:49;;;;;;;9.27;8.30;;;;;;;-145.12;100.00;63763.75;345805;28;137161;-78
2021/07/23 01:54:00;;;;;;;10.05;8.00;;;;;;;-145.12;100.00;63763.75;345884;28;138033;-76
2021/07/23 01:55:11;;;;;;;10.52;8.13;;;;;;;-145.12;100.00;63763.75;345812;28;137117;-78
2021/07/23 01:56:22;;;;;;;12.07;8.45;;;;;;;-145.12;100.00;63763.75;345889;28;136497;-77
2021/07/23 01:57:34;;;;;;;11.30;8.55;;;;;;;-145.12;100.00;63763.75;346037;28;138137;-77
2021/07/23 01:58:46;;;;;;;11.70;8.82;;;;;;;-145.12;100.00;63763.75;345784;28;137043;-78
2021/07/23 02:00:00;;;;;;;11.07;8.52;;;;;;;-145.12;100.00;63763.75;345849;28;137837;-77
2021/07/23 02:01:11;;;;;;;11.57;8.48;;;;;;;-145.12;100.00;63763.75;345719;28;138435;-75
2021/07/23 02:02:23;;;;;;;11.73;9.07;;;;;;;-145.12;100.00;63763.75;345931;28;137506;-79
2021/07/23 02:03:34;;;;;;;11.24;8.82;;;;;;;-145.12;100.00;63763.75;342389;28;159356;-77
2021/07/23 02:04:46;;;;;;;11.55;8.50;;;;;;;-145.12;100.00;63763.75;341730;28;137883;-77
2021/07/23 02:05:57;;;;;;;11.45;8.70;;;;;;;-145.12;100.00;63763.75;341754;28;137283;-77
2021/07/23 02:07:08;;;;;;;10.98;8.68;;;;;;;-145.12;100.00;63763.75;343180;28;137174;-77
2021/07/23 02:08:19;;;;;;;9.90;8.52;;;;;;;-145.12;100.00;63763.75;343114;28;138425;-77
2021/07/23 02:09:30;;;;;;;11.13;8.48;;;;;;;-145.12;100.00;63763.75;343190;28;137205;-77
2021/07/23 02:10:41;;;;;;;10.05;8.52;;;;;;;-145.12;100.00;63763.75;342467;28;159426;-77
2021/07/23 02:11:52;;;;;;;11.25;8.43;;;;;;;-145.12;100.00;63763.75;345961;28;136463;-78
2021/07/23 02:13:04;;;;;;;11.82;8.80;;;;;;;-145.12;100.00;63763.75;345921;28;137080;-77
2021/07/23 02:14:16;;;;;;;12.50;8.75;;;;;;;-145.12;100.00;63763.75;345829;28;138132;-73
2021/07/23 02:15:27;;;;;;;10.90;8.75;;;;;;;-145.12;100.00;63763.75;345990;28;137813;-75
2021/07/23 02:16:38;;;;;;;12.23;9.23;;;;;;;-145.12;100.00;63763.75;345775;28;138350;-77
2021/07/23 02:17:49;;;;;;;11.25;9.13;;;;;;;-145.12;100.00;63763.75;345672;28;137211;-77
2021/07/23 02:19:01;;;;;;;12.68;9.35;;;;;;;-145.12;100.00;63763.75;344424;28;137126;-76
2021/07/23 02:20:12;;;;;;;12.15;9.25;;;;;;;-145.12;100.00;63763.75;344543;28;137824;-73
2021/07/23 02:21:23;;;;;;;10.68;9.15;;;;;;;-145.12;100.00;63763.75;344447;28;137329;-73
2021/07/23 02:22:38;;;;;;;11.50;9.20;;;;;;;-145.12;100.00;63763.75;344454;28;138225;-77
2021/07/23 02:23:49;;;;;;;13.02;9.10;;;;;;;-145.12;100.00;63763.75;344535;28;137090;-75
2021/07/23 02:25:03;;;;;;;11.80;8.70;;;;;;;-145.12;100.00;63763.75;343102;28;138348;-77
2021/07/23 02:26:17;;;;;;;12.60;9.30;;;;;;;-145.12;100.00;63763.75;343139;28;137683;-78
2021/07/23 02:27:32;;;;;;;13.38;8.88;;;;;;;-145.12;100.00;63763.75;343063;28;137966;-74
2021/07/23 02:28:43;;;;;;;13.15;9.57;;;;;;;-145.12;100.00;63763.75;342889;28;137836;-77
2021/07/23 02:29:54;;;;;;;11.63;9.02;;;;;;;-145.12;100.00;63763.75;343173;28;138382;-77
2021/07/23 02:31:06;;;;;;;15.30;9.88;;;;;;;-145.12;100.00;63763.75;343158;28;138214;-77
2021/07/23 02:32:17;;;;;;;13.15;9.50;;;;;;;-145.12;100.00;63763.75;344009;28;137212;-73
2021/07/23 02:33:29;;;;;;;12.65;9.55;;;;;;;-145.12;100.00;63763.75;343211;28;137334;-73
2021/07/23 02:34:40;;;;;;;12.43;9.48;;;;;;;-145.12;100.00;63763.75;343114;28;137991;-74
2021/07/23 02:35:51;;;;;;;13.85;9.45;;;;;;;-145.12;100.00;63763.75;345937;28;136400;-76
2021/07/23 02:37:02;;;;;;;12.02;9.36;;;;;;;-145.12;100.00;63763.75;345250;28;161219;-75
2021/07/23 02:38:13;;;;;;;14.05;9.30;;;;;;;-145.12;100.00;63763.75;346067;28;137107;-77
2021/07/23 02:39:25;;;;;;;12.15;9.38;;;;;;;-145.12;100.00;63763.75;346070;28;137112;-77
2021/07/23 02:40:36;;;;;;;16.85;9.23;;;;;;;-145.12;100.00;63763.75;346070;28;137453;-71
2021/07/23 02:41:47;;;;;;;11.57;8.95;;;;;;;-145.12;100.00;63763.75;345773;28;138482;-74
2021/07/23 02:42:58;;;;;;;12.30;9.27;;;;;;;-145.12;100.00;63763.75;345511;28;138472;-74
2021/07/23 02:44:09;;;;;;;14.35;9.27;;;;;;;-145.12;100.00;63763.75;343302;28;138004;-75
2021/07/23 02:45:21;;;;;;;11.85;9.23;;;;;;;-145.12;100.00;63763.75;344737;28;138492;-77
2021/07/23 02:46:32;;;;;;;12.57;9.60;;;;;;;-145.12;100.00;63763.75;344628;28;138136;-75
2021/07/23 02:47:44;;;;;;;12.93;9.85;;;;;;;-145.12;100.00;63763.75;344598;28;138096;-73
2021/07/23 02:48:55;;;;;;;12.68;9.75;;;;;;;-145.12;100.00;63763.75;344699;28;137153;-77
2021/07/23 02:50:09;;;;;;;12.88;9.80;;;;;;;-145.12;100.00;63763.75;344764;28;137306;-77
2021/07/23 02:51:20;;;;;;;13.82;9.27;;;;;;;-145.12;100.00;63763.75;344768;28;137277;-75
2021/07/23 02:52:31;;;;;;;12.10;9.60;;;;;;;-145.12;100.00;63763.75;344683;28;138378;-77
2021/07/23 02:53:42;;;;;;;14.07;9.50;;;;;;;-145.12;100.00;63763.75;345425;28;138100;-77
2021/07/23 02:54:53;;;;;;;11.30;9.30;;;;;;;-145.12;100.00;63763.75;344716;28;138344;-77
2021/07/23 02:56:05;;;;;;;11.15;9.30;;;;;;;-145.12;100.00;63763.75;344661;28;138244;-77
2021/07/23 02:57:16;;;;;;;12.27;9.18;;;;;;;-145.12;100.00;63763.75;343276;28;138165;-77
2021/07/23 02:58:27;;;;;;;12.68;9.93;;;;;;;-145.12;100.00;63763.75;343119;28;136513;-77
2021/07/23 02:59:39;;;;;;;15.15;9.65;;;;;;;-145.12;100.00;63763.75;343361;28;137200;-76
2021/07/23 03:00:50;;;;;;;15.02;10.38;;;;;;;-145.12;100.00;63763.75;343242;28;138438;-76
2021/07/23 03:02:03;;;;;;;13.68;9.80;;;;;;;-145.12;100.00;63763.75;342429;28;161311;-76
2021/07/23 03:03:14;;;;;;;13.75;10.07;;;;;;;-145.12;100.00;63763.75;343308;28;138146;-72
2021/07/23 03:04:25;;;;;;;11.73;9.43;;;;;;;-145.12;100.00;63763.75;345634;28;137793;-77
2021/07/23 03:05:36;;;;;;;12.57;9.77;;;;;;;-145.12;100.00;63763.75;346096;28;138290;-74
2021/07/23 03:06:47;;;;;;;12.32;9.70;;;;;;;-145.12;100.00;63763.75;346068;28;137603;-77
2021/07/23 03:07:58;;;;;;;11.57;9.57;;;;;;;-145.12;100.00;63763.75;346074;28;137268;-73
2021/07/23 03:09:09;;;;;;;12.35;9.77;;;;;;;-145.12;100.00;63763.75;345262;28;159939;-74
2021/07/23 03:10:20;;;;;;;12.75;10.50;;;;;;;-145.12;100.00;63763.75;346095;28;137012;-73
2021/07/23 03:11:32;;;;;;;13.75;11.27;;;;;;;-145.12;100.00;63763.75;344764;28;137229;-77
2021/07/23 03:12:43;;;;;;;12.95;10.38;;;;;;;-145.12;100.00;63763.75;344710;28;138137;-70
2021/07/23 03:13:55;;;;;;;13.05;10.00;;;;;;;-145.12;100.00;63763.75;344659;28;137290;-77
2021/07/23 03:15:07;;;;;;;12.57;10.48;;;;;;;-145.12;100.00;63763.75;342435;28;159967;-76
2021/07/23 03:16:18;;;;;;;14.48;11.07;;;;;;;-145.12;100.00;63763.75;343142;28;137986;-76
2021/07/23 03:17:29;;;;;;;13.18;10.50;;;;;;;-145.12;100.00;63763.75;343340;28;137147;-69
2021/07/23 03:18:40;;;;;;;13.88;10.07;;;;;;;-145.12;100.00;63763.75;344759;28;137021;-77
2021/07/23 03:19:52;;;;;;;14.43;10.40;;;;;;;-145.12;100.00;63763.75;344609;28;137222;-77
2021/07/23 03:21:04;;;;;;;13.13;10.48;;;;;;;-145.12;100.00;63763.75;343744;28;161345;-77
2021/07/23 03:22:18;;;;;;;12.82;10.23;;;;;;;-145.12;100.00;63763.75;344625;28;137154;-76
2021/07/23 03:23:29;;;;;;;13.88;10.10;;;;;;;-145.12;100.00;63763.75;344734;28;137414;-72
2021/07/23 03:24:40;;;;;;;15.65;10.18;;;;;;;-145.12;100.00;63763.75;344682;28;136418;-76
2021/07/23 03:25:51;;;;;;;14.00;10.30;;;;;;;-145.12;100.00;63763.75;344635;28;136572;-74
2021/07/23 03:27:03;;;;;;;14.75;10.90;;;;;;;-145.12;100.00;63763.75;344713;28;138022;-77
2021/07/23 03:28:14;;;;;;;13.93;10.60;;;;;;;-145.12;100.00;63763.75;343213;28;137180;-71
2021/07/23 03:29:25;;;;;;;14.02;10.50;;;;;;;-145.12;100.00;63763.75;344593;28;138366;-78
2021/07/23 03:30:39;;;;;;;14.00;10.52;;;;;;;-145.12;100.00;63763.75;344205;28;160213;-74
2021/07/23 03:31:50;;;;;;;15.18;11.38;;;;;;;-145.12;100.00;63763.75;344571;28;138022;-72
2021/07/23 03:33:02;;;;;;;15.23;11.40;;;;;;;-145.12;100.00;63763.75;344531;28;137023;-77
2021/07/23 03:34:13;;;;;;;15.35;11.18;;;;;;;-145.12;100.00;63763.75;344741;28;137813;-72
2021/07/23 03:35:25;;;;;;;14.35;11.43;;;;;;;-145.12;100.00;63763.75;344797;28;137086;-73
2021/07/23 03:36:36;;;;;;;14.00;10.95;;;;;;;-145.12;100.00;63763.75;344720;28;138526;-77
2021/07/23 03:37:47;;;;;;;15.30;11.02;;;;;;;-145.12;100.00;63763.75;344618;28;138426;-78
2021/07/23 03:38:58;;;;;;;15.38;11.27;;;;;;;-145.12;100.00;63763.75;344577;28;138407;-73
2021/07/23 03:40:10;;;;;;;14.13;11.40;;;;;;;-145.12;100.00;63763.75;342547;28;159331;-73
2021/07/23 03:41:21;;;;;;;14.13;11.25;;;;;;;-145.12;100.00;63763.75;341745;28;138452;-76
2021/07/23 03:42:32;;;;;;;14.70;11.10;;;;;;;-145.12;100.00;63763.75;342755;28;137258;-73
2021/07/23 03:43:43;;;;;;;15.35;11.18;;;;;;;-145.12;100.00;63763.75;344555;28;137015;-74
2021/07/23 03:44:55;;;;;;;14.93;11.18;;;;;;;-145.12;100.00;63763.75;343275;28;138281;-74
2021/07/23 03:46:06;;;;;;;15.82;11.50;;;;;;;-145.12;100.00;63763.75;342201;28;160419;-76
2021/07/23 03:47:18;;;;;;;15.82;11.50;;;;;;;-145.12;100.00;63763.75;342970;28;137228;-75
2021/07/23 03:48:30;;;;;;;15.55;11.63;;;;;;;-145.12;100.00;63763.75;343366;28;137421;-73
2021/07/23 03:49:41;;;;;;;13.93;11.10;;;;;;;-145.12;100.00;63763.75;343086;28;137226;-66
2021/07/23 03:50:52;;;;;;;15.90;11.65;;;;;;;-145.12;100.00;63763.75;343313;28;137203;-66
2021/07/23 03:52:03;;;;;;;16.25;11.30;;;;;;;-145.12;100.00;63763.75;342631;28;138424;-66
2021/07/23 03:53:14;;;;;;;15.05;11.07;;;;;;;-145.12;100.00;63763.75;341879;28;138463;-69
2021/07/23 03:54:26;;;;;;;16.27;11.60;;;;;;;-145.12;100.00;63763.75;341908;28;138328;-67
2021/07/23 03:55:37;;;;;;;15.20;11.20;;;;;;;-145.12;100.00;63763.75;341713;28;137145;-69
2021/07/23 03:56:48;;;;;;;16.75;11.95;;;;;;;-145.12;100.00;63763.75;341968;28;136437;-67
2021/07/23 03:58:03;;;;;;;16.00;11.77;;;;;;;-145.12;100.00;63763.75;341975;28;136474;-67
2021/07/23 03:59:14;;;;;;;15.43;10.95;;;;;;;-145.12;100.00;63763.75;341668;28;138001;-68
2021/07/23 04:00:25;;;;;;;16.27;11.48;;;;;;;-145.12;100.00;63763.75;343247;28;138390;-70
2021/07/23 04:01:38;;;;;;;14.70;11.27;;;;;;;-145.12;100.00;63763.75;344722;28;138538;-66
2021/07/23 04:02:50;;;;;;;15.13;11.30;;;;;;;-145.12;100.00;63763.75;344587;28;138272;-68
2021/07/23 04:04:01;;;;;;;16.20;11.07;;;;;;;-145.12;100.00;63763.75;344507;28;138256;-75
2021/07/23 04:05:12;;;;;;;18.17;11.48;;;;;;;-145.12;100.00;63763.75;344648;28;136466;-72
2021/07/23 04:06:23;;;;;;;15.55;11.60;;;;;;;-145.12;100.00;63763.75;344640;28;138293;-78
2021/07/23 04:07:34;;;;;;;14.07;11.27;;;;;;;-145.12;100.00;63763.75;344645;28;137409;-69
2021/07/23 04:08:46;;;;;;;15.20;11.32;;;;;;;-145.12;100.00;63763.75;344733;28;138264;-75
2021/07/23 04:09:58;;;;;;;15.85;11.30;;;;;;;-145.12;100.00;63763.75;344672;28;137847;-75
2021/07/23 04:11:17;;;;;;;16.05;11.52;;;;;;;-145.12;100.00;63763.75;344565;28;137360;-78
2021/07/23 04:12:28;;;;;;;16.92;11.38;;;;;;;-145.12;100.00;63763.75;343302;28;138622;-71
2021/07/23 04:13:39;;;;;;;16.55;12.07;;;;;;;-145.12;100.00;63763.75;340464;28;137057;-67
2021/07/23 04:14:50;;;;;;;15.88;12.15;;;;;;;-145.12;100.00;63763.75;340545;28;137222;-68
2021/07/23 04:16:03;;;;;;;17.02;12.82;;;;;;;-145.12;100.00;63763.75;343235;28;137234;-66
2021/07/23 04:17:14;;;;;;;18.23;12.35;;;;;;;-145.12;100.00;63763.75;343314;28;137226;-67
2021/07/23 04:18:25;;;;;;;17.23;12.20;;;;;;;-145.12;100.00;63763.75;343174;28;137264;-67
2021/07/23 04:19:39;;;;;;;14.48;11.68;;;;;;;-145.12;100.00;63763.75;341905;28;137385;-69
2021/07/23 04:20:50;;;;;;;17.88;12.32;;;;;;;-145.12;100.00;63763.75;341882;28;137355;-66
2021/07/23 04:22:02;;;;;;;14.88;11.80;;;;;;;-145.12;100.00;63763.75;344585;28;137134;-70
2021/07/23 04:23:13;;;;;;;15.23;11.93;;;;;;;-145.12;100.00;63763.75;344508;28;138239;-70
2021/07/23 04:24:24;;;;;;;19.26;11.96;;;;;;;-145.12;100.00;63763.75;342414;28;160253;-68
2021/07/23 04:25:38;;;;;;;17.52;12.50;;;;;;;-145.12;100.00;63763.75;343156;28;137291;-74
2021/07/23 04:26:49;;;;;;;16.80;11.95;;;;;;;-145.12;100.00;63763.75;344637;28;136983;-73
2021/07/23 04:28:01;;;;;;;17.10;12.57;;;;;;;-145.12;100.00;63763.75;344500;28;138267;-75
2021/07/23 04:29:12;;;;;;;17.38;12.95;;;;;;;-145.12;100.00;63763.75;344624;28;136467;-72
2021/07/23 04:30:23;;;;;;;16.25;11.77;;;;;;;-145.12;100.00;63763.75;344643;28;138247;-74
2021/07/23 04:31:34;;;;;;;17.35;14.02;;;;;;;-145.12;100.00;63763.75;344766;28;136349;-75
2021/07/23 04:32:46;;;;;;;20.30;13.05;;;;;;;-145.12;100.00;63763.75;341034;28;160220;-72
2021/07/23 04:33:58;;;;;;;18.82;13.04;;;;;;;-145.12;100.00;63763.75;341168;28;160996;-70
2021/07/23 04:35:10;;;;;;;18.17;13.18;;;;;;;-145.12;100.00;63763.75;341757;28;138361;-77
2021/07/23 04:36:21;;;;;;;17.80;13.27;;;;;;;-145.12;100.00;63763.75;342119;28;137198;-75
2021/07/23 04:37:33;;;;;;;18.42;13.05;;;;;;;-145.12;100.00;63763.75;341838;28;137259;-76
2021/07/23 04:38:44;;;;;;;16.38;12.94;;;;;;;-145.12;100.00;63763.75;341216;28;160160;-75
2021/07/23 04:39:55;;;;;;;18.52;12.63;;;;;;;-145.12;100.00;63763.75;342004;28;136483;-72
2021/07/23 04:41:07;;;;;;;17.23;12.25;;;;;;;-145.12;100.00;63763.75;341077;28;161283;-70
2021/07/23 04:42:18;;;;;;;19.35;15.23;;;;;;;-145.12;100.00;63763.75;341953;28;138167;-76
2021/07/23 04:43:31;;;;;;;33.17;29.67;;;;;;;-145.12;100.00;63763.75;341911;28;138129;-70
2021/07/23 04:44:42;;;;;;;31.23;26.10;;;;;;;-145.12;100.00;63763.75;341936;28;137100;-72
2021/07/23 04:45:53;;;;;;;27.55;22.10;;;;;;;-145.12;100.00;63763.75;343673;28;137437;-71
2021/07/23 04:47:05;;;;;;;28.92;21.83;;;;;;;-145.12;100.00;63763.75;344455;28;137171;-74
2021/07/23 04:48:16;;;;;;;22.90;17.83;;;;;;;-145.12;100.00;63763.75;344541;28;138090;-74
2021/07/23 04:49:28;;;;;;;25.23;19.45;;;;;;;-145.12;100.00;63763.75;344591;28;137240;-73
2021/07/23 04:50:39;;;;;;;26.27;19.00;;;;;;;-145.12;100.00;63763.75;344604;28;138072;-73
2021/07/23 04:51:50;;;;;;;22.58;16.42;;;;;;;-145.12;100.00;63763.75;343799;28;160003;-76
2021/07/23 04:53:01;;;;;;;22.40;16.00;;;;;;;-145.12;100.00;63763.75;344576;28;138340;-76
2021/07/23 04:54:13;;;;;;;22.38;16.42;;;;;;;-145.12;100.00;63763.75;342946;28;138032;-71
2021/07/23 04:55:24;;;;;;;21.60;16.50;;;;;;;-145.12;100.00;63763.75;341442;28;139287;-76
2021/07/23 04:56:35;;;;;;;22.70;16.17;;;;;;;-145.12;100.00;63763.75;341692;28;137335;-76
2021/07/23 04:57:47;;;;;;;24.55;17.85;;;;;;;-145.12;100.00;63763.75;341785;28;137943;-71
2021/07/23 04:58:58;;;;;;;21.77;16.55;;;;;;;-145.12;100.00;63763.75;341409;28;138399;-74
2021/07/23 05:00:10;;;;;;;20.05;15.93;;;;;;;-145.12;100.00;63763.75;341855;28;138368;-73
2021/07/23 05:01:21;;;;;;;21.23;16.40;;;;;;;-145.12;100.00;63763.75;341818;28;138119;-75
2021/07/23 05:02:32;;;;;;;18.35;14.93;;;;;;;-145.12;100.00;63763.75;341916;28;137224;-74
2021/07/23 05:03:50;;;;;;;22.73;15.52;;;;;;;-145.12;100.00;63763.75;343284;28;137215;-73
2021/07/23 05:05:02;;;;;;;20.45;14.73;;;;;;;-145.12;100.00;63763.75;343284;28;137246;-76
2021/07/23 05:06:13;;;;;;;21.50;14.82;;;;;;;-145.12;100.00;63763.75;343371;28;137810;-76
2021/07/23 05:07:25;;;;;;;19.52;13.93;;;;;;;-145.12;100.00;63763.75;343217;28;137306;-75
2021/07/23 05:08:36;;;;;;;18.80;14.48;;;;;;;-145.12;100.00;63763.75;343362;28;137278;-76
2021/07/23 05:09:47;;;;;;;18.55;14.13;;;;;;;-145.12;100.00;63763.75;343369;28;137021;-74
2021/07/23 05:10:59;;;;;;;21.50;15.07;;;;;;;-145.12;100.00;63763.75;343263;28;138083;-73
2021/07/23 05:12:11;;;;;;;19.23;14.52;;;;;;;-145.12;100.00;63763.75;343249;28;136603;-74
2021/07/23 05:13:22;;;;;;;20.77;13.40;;;;;;;-145.12;100.00;63763.75;343351;28;138588;-76
2021/07/23 05:14:34;;;;;;;19.08;13.68;;;;;;;-145.12;100.00;63763.75;344558;28;138511;-77
2021/07/23 05:15:45;;;;;;;17.05;13.35;;;;;;;-145.12;100.00;63763.75;344423;28;138182;-77
2021/07/23 05:17:00;;;;;;;18.10;13.18;;;;;;;-145.12;100.00;63763.75;343118;28;137365;-75
2021/07/23 05:18:11;;;;;;;17.52;12.52;;;;;;;-145.12;100.00;63763.75;342283;28;161216;-76
2021/07/23 05:19:23;;;;;;;16.70;12.75;;;;;;;-145.12;100.00;63763.75;343149;28;138472;-77
2021/07/23 05:20:36;;;;;;;17.38;13.10;;;;;;;-145.12;100.00;63763.75;342884;28;137999;-75